createdAt,value
2023-02-24T00:00:38.424Z,23.58
2023-02-24T00:03:15.368Z,23.95
2023-02-24T00:05:44.741Z,21.90
2023-02-24T00:08:12.749Z,22.60
2023-02-24T00:10:41.495Z,21.85
2023-02-24T00:13:12.265Z,23.30
2023-02-24T00:15:42.053Z,22.25
2023-02-24T00:18:10.459Z,22.08
2023-02-24T00:20:38.824Z,22.38
2023-02-24T00:23:09.753Z,22.63
2023-02-24T00:25:38.103Z,22.80
2023-02-24T00:28:06.376Z,22.90
2023-02-24T00:30:34.546Z,22.55
2023-02-24T00:33:04.496Z,22.65
2023-02-24T00:35:33.290Z,23.77
2023-02-24T00:38:01.348Z,21.92
2023-02-24T00:40:30.389Z,23.88
2023-02-24T00:42:59.064Z,24.13
2023-02-24T00:45:30.717Z,23.83
2023-02-24T00:47:58.765Z,24.27
2023-02-24T00:50:28.492Z,23.55
2023-02-24T00:52:56.403Z,23.25
2023-02-24T00:55:36.497Z,23.92
2023-02-24T00:58:07.278Z,23.70
2023-02-24T01:00:37.511Z,22.52
2023-02-24T01:03:05.688Z,21.65
2023-02-24T01:05:37.684Z,22.80
2023-02-24T01:08:05.781Z,21.95
2023-02-24T01:10:35.133Z,23.70
2023-02-24T01:13:02.557Z,22.80
2023-02-24T01:15:30.861Z,21.98
2023-02-24T01:17:58.813Z,22.23
2023-02-24T01:20:30.391Z,22.98
2023-02-24T01:22:59.716Z,22.53
2023-02-24T01:25:31.273Z,22.05
2023-02-24T01:27:59.394Z,23.10
2023-02-24T01:30:27.682Z,23.00
2023-02-24T01:32:57.431Z,22.52
2023-02-24T01:35:27.009Z,22.25
2023-02-24T01:37:54.927Z,22.88
2023-02-24T01:40:26.640Z,22.55
2023-02-24T01:42:54.587Z,22.75
2023-02-24T01:45:25.316Z,22.95
2023-02-24T01:47:54.519Z,24.10
2023-02-24T01:50:25.994Z,23.00
2023-02-24T01:52:58.177Z,22.73
2023-02-24T01:58:01.271Z,22.33
2023-02-24T02:00:37.471Z,21.85
2023-02-24T02:03:10.966Z,21.00
2023-02-24T02:05:40.203Z,23.90
2023-02-24T02:08:09.631Z,23.98
2023-02-24T02:10:41.090Z,22.00
2023-02-24T02:13:09.067Z,21.85
2023-02-24T02:15:46.009Z,21.80
2023-02-24T02:18:19.479Z,21.13
2023-02-24T02:21:15.331Z,20.55
2023-02-24T02:24:13.048Z,21.08
2023-02-24T02:27:21.262Z,19.85
2023-02-24T02:30:13.987Z,19.88
2023-02-24T02:33:08.215Z,19.15
2023-02-24T02:35:40.648Z,20.50
2023-02-24T02:38:15.317Z,19.63
2023-02-24T02:40:47.070Z,18.63
2023-02-24T02:43:18.857Z,19.23
2023-02-24T02:45:49.186Z,17.23
2023-02-24T02:48:21.258Z,15.25
2023-02-24T02:50:55.683Z,16.77
2023-02-24T02:53:26.924Z,14.38
2023-02-24T02:55:59.232Z,15.05
2023-02-24T02:58:31.901Z,14.25
2023-02-24T03:01:02.630Z,14.40
2023-02-24T03:03:34.000Z,12.45
2023-02-24T03:06:06.092Z,13.73
2023-02-24T03:08:38.309Z,13.70
2023-02-24T03:13:38.958Z,13.25
2023-02-24T03:16:09.314Z,12.13
2023-02-24T03:18:40.456Z,12.05
2023-02-24T03:21:12.503Z,13.30
2023-02-24T03:28:55.140Z,13.00
2023-02-24T03:31:28.744Z,12.65
2023-02-24T03:34:03.676Z,12.30
2023-02-24T03:36:33.954Z,12.35
2023-02-24T03:39:05.591Z,13.10
2023-02-24T03:41:39.506Z,12.13
2023-02-24T03:44:09.564Z,12.20
2023-02-24T03:46:38.208Z,12.15
2023-02-24T03:49:16.726Z,12.55
2023-02-24T03:51:56.944Z,11.75
2023-02-24T03:54:46.930Z,11.70
2023-02-24T03:57:23.625Z,12.45
2023-02-24T03:59:57.396Z,12.05
2023-02-24T04:02:29.177Z,10.63
2023-02-24T04:05:03.126Z,11.88
2023-02-24T04:07:41.273Z,12.50
2023-02-24T04:10:15.471Z,10.55
2023-02-24T04:12:47.828Z,11.43
2023-02-24T04:15:21.632Z,11.63
2023-02-24T04:17:52.087Z,10.50
2023-02-24T04:20:23.735Z,11.02
2023-02-24T04:22:57.024Z,10.65
2023-02-24T04:25:27.376Z,10.82
2023-02-24T04:27:58.276Z,11.88
2023-02-24T04:30:30.495Z,12.80
2023-02-24T04:32:58.822Z,12.30
2023-02-24T04:35:28.639Z,11.30
2023-02-24T04:37:58.236Z,11.60
2023-02-24T04:40:26.583Z,11.77
2023-02-24T04:42:55.502Z,12.40
2023-02-24T04:45:25.700Z,12.32
2023-02-24T04:48:00.794Z,12.95
2023-02-24T04:50:31.201Z,11.43
2023-02-24T04:53:02.027Z,12.10
2023-02-24T04:55:33.232Z,11.43
2023-02-24T04:58:01.817Z,13.05
2023-02-24T05:00:35.424Z,12.45
2023-02-24T05:03:04.943Z,12.80
2023-02-24T05:05:34.122Z,12.55
2023-02-24T05:08:07.302Z,12.48
2023-02-24T05:10:38.748Z,11.75
2023-02-24T05:13:07.700Z,11.82
2023-02-24T05:15:39.680Z,13.20
2023-02-24T05:18:09.784Z,12.27
2023-02-24T05:20:56.470Z,12.60
2023-02-24T05:23:27.827Z,13.20
2023-02-24T05:25:56.157Z,13.10
2023-02-24T05:28:24.300Z,13.35
2023-02-24T05:30:54.536Z,12.70
2023-02-24T05:33:22.738Z,13.52
2023-02-24T05:35:52.111Z,13.30
2023-02-24T05:38:20.437Z,14.20
2023-02-24T05:40:50.196Z,14.32
2023-02-24T05:43:19.104Z,13.95
2023-02-24T05:45:47.562Z,14.50
2023-02-24T05:48:15.821Z,14.07
2023-02-24T05:50:46.795Z,14.63
2023-02-24T05:53:15.907Z,15.27
2023-02-24T05:55:45.002Z,14.77
2023-02-24T05:58:16.134Z,14.57
2023-02-24T06:00:46.222Z,15.52
2023-02-24T06:03:17.600Z,15.85
2023-02-24T06:05:54.001Z,15.98
2023-02-24T06:08:24.483Z,16.50
2023-02-24T06:10:53.713Z,16.80
2023-02-24T06:13:22.996Z,16.33
2023-02-24T06:15:57.296Z,17.73
2023-02-24T06:18:25.555Z,16.70
2023-02-24T06:20:54.163Z,16.23
2023-02-24T06:23:22.231Z,14.75
2023-02-24T06:25:50.610Z,14.10
2023-02-24T06:28:19.913Z,14.25
2023-02-24T06:30:49.555Z,14.50
2023-02-24T06:33:17.678Z,14.07
2023-02-24T06:35:45.998Z,14.10
2023-02-24T06:38:15.203Z,13.23
2023-02-24T06:40:43.584Z,13.80
2023-02-24T06:43:11.815Z,12.90
2023-02-24T06:45:40.116Z,13.73
2023-02-24T06:48:09.550Z,13.30
2023-02-24T06:50:38.108Z,12.88
2023-02-24T06:53:16.926Z,13.63
2023-02-24T06:55:48.791Z,13.10
2023-02-24T06:58:18.852Z,13.55
2023-02-24T07:00:56.714Z,14.48
2023-02-24T07:03:39.380Z,13.35
2023-02-24T07:06:25.702Z,13.85
2023-02-24T07:08:54.465Z,12.90
2023-02-24T07:11:23.401Z,13.30
2023-02-24T07:13:53.890Z,12.48
2023-02-24T07:16:25.310Z,12.68
2023-02-24T07:18:56.897Z,12.47
2023-02-24T07:21:26.999Z,12.43
2023-02-24T07:23:58.790Z,13.02
2023-02-24T07:28:58.873Z,11.13
2023-02-24T07:31:27.188Z,11.50
2023-02-24T07:33:57.595Z,11.18
2023-02-24T07:36:30.052Z,11.20
2023-02-24T07:39:00.021Z,11.68
2023-02-24T07:41:30.424Z,10.55
2023-02-24T07:44:03.256Z,10.93
2023-02-24T07:49:03.482Z,10.43
2023-02-24T07:51:32.209Z,10.40
2023-02-24T07:54:02.661Z,10.52
2023-02-24T07:56:32.868Z,10.30
2023-02-24T07:59:02.912Z,9.02
2023-02-24T08:01:38.870Z,9.25
2023-02-24T08:04:12.352Z,9.00
2023-02-24T08:06:46.069Z,9.52
2023-02-24T08:09:19.401Z,8.68
2023-02-24T08:11:52.199Z,9.43
2023-02-24T08:14:23.680Z,7.55
2023-02-24T08:16:59.260Z,8.98
2023-02-24T08:19:32.910Z,8.40
2023-02-24T08:22:19.204Z,7.93
2023-02-24T08:24:50.287Z,7.90
2023-02-24T08:27:20.434Z,7.20
2023-02-24T08:29:59.977Z,7.40
2023-02-24T08:32:33.722Z,7.38
2023-02-24T08:35:04.978Z,7.38
2023-02-24T08:37:39.698Z,7.03
2023-02-24T08:40:29.355Z,6.53
2023-02-24T08:42:59.461Z,6.57
2023-02-24T08:45:28.756Z,7.03
2023-02-24T08:48:00.756Z,7.40
2023-02-24T08:50:33.761Z,7.88
2023-02-24T08:53:03.679Z,8.07
2023-02-24T08:55:32.977Z,7.95
2023-02-24T08:58:02.380Z,7.95
2023-02-24T09:00:48.978Z,7.70
2023-02-24T09:03:27.996Z,9.60
2023-02-24T09:06:05.753Z,9.05
2023-02-24T09:08:38.306Z,9.00
2023-02-24T09:13:42.980Z,9.60
2023-02-24T09:16:16.286Z,9.10
2023-02-24T09:18:45.008Z,10.77
2023-02-24T09:21:32.523Z,9.80
2023-02-24T09:24:05.554Z,10.35
2023-02-24T09:26:43.058Z,10.10
2023-02-24T09:29:33.533Z,11.07
2023-02-24T09:32:13.608Z,13.80
2023-02-24T09:34:43.992Z,11.20
2023-02-24T09:37:25.158Z,11.13
2023-02-24T09:40:14.211Z,13.43
2023-02-24T09:42:47.314Z,12.85
2023-02-24T09:45:32.788Z,12.43
2023-02-24T09:48:10.457Z,19.92
2023-02-24T09:51:01.943Z,12.75
2023-02-24T09:53:41.266Z,12.13
2023-02-24T09:56:17.828Z,10.88
2023-02-24T09:58:49.953Z,12.80
2023-02-24T10:01:33.233Z,11.77
2023-02-24T10:04:20.299Z,12.75
2023-02-24T10:06:51.274Z,13.27
2023-02-24T10:09:26.816Z,11.73
2023-02-24T10:12:04.136Z,12.00
2023-02-24T10:14:43.664Z,12.20
2023-02-24T10:17:30.578Z,12.07
2023-02-24T10:20:13.689Z,11.52
2023-02-24T10:22:50.676Z,11.45
2023-02-24T10:25:36.262Z,11.27
2023-02-24T10:28:13.412Z,11.75
2023-02-24T10:30:49.867Z,10.90
2023-02-24T10:33:26.288Z,12.02
2023-02-24T10:36:09.400Z,13.82
2023-02-24T10:38:40.770Z,11.80
2023-02-24T10:41:11.712Z,11.30
2023-02-24T10:43:46.285Z,10.43
2023-02-24T10:46:35.116Z,11.35
2023-02-24T10:49:16.367Z,8.52
2023-02-24T10:51:49.322Z,9.55
2023-02-24T10:54:34.069Z,9.27
2023-02-24T10:57:15.556Z,9.15
2023-02-24T11:00:19.401Z,8.38
2023-02-24T11:03:10.572Z,9.68
2023-02-24T11:05:44.356Z,9.10
2023-02-24T11:08:36.377Z,9.63
2023-02-24T11:11:20.097Z,9.38
2023-02-24T11:14:11.252Z,8.27
2023-02-24T11:17:03.091Z,9.57
2023-02-24T11:19:32.696Z,9.27
2023-02-24T11:22:03.122Z,8.65
2023-02-24T11:24:31.366Z,9.55
2023-02-24T11:26:59.795Z,8.75
2023-02-24T11:29:39.708Z,7.38
2023-02-24T11:32:27.434Z,7.10
2023-02-24T11:34:59.526Z,9.00
2023-02-24T11:37:37.809Z,8.90
2023-02-24T11:40:09.726Z,9.30
2023-02-24T11:42:41.927Z,9.02
2023-02-24T11:45:23.098Z,8.23
2023-02-24T11:47:55.020Z,8.82
2023-02-24T11:50:39.612Z,9.02
2023-02-24T11:53:24.365Z,8.82
2023-02-24T11:55:57.837Z,8.82
2023-02-24T11:58:31.420Z,8.38
2023-02-24T12:01:05.412Z,10.00
2023-02-24T12:03:38.672Z,8.60
2023-02-24T12:06:15.230Z,8.43
2023-02-24T12:08:46.202Z,8.77
2023-02-24T12:11:22.079Z,8.52
2023-02-24T12:13:53.775Z,8.98
2023-02-24T12:16:27.923Z,8.98
2023-02-24T12:19:00.409Z,9.05
2023-02-24T12:21:33.832Z,10.30
2023-02-24T12:24:08.131Z,10.02
2023-02-24T12:26:42.718Z,9.35
2023-02-24T12:29:26.228Z,9.20
2023-02-24T12:32:05.747Z,11.18
2023-02-24T12:34:46.117Z,9.85
2023-02-24T12:37:27.357Z,9.52
2023-02-24T12:40:04.174Z,10.30
2023-02-24T12:42:37.119Z,11.38
2023-02-24T12:45:13.117Z,10.57
2023-02-24T12:47:55.468Z,11.27
2023-02-24T12:50:34.958Z,10.93
2023-02-24T12:53:10.598Z,10.05
2023-02-24T12:55:45.507Z,10.48
2023-02-24T12:58:15.339Z,11.30
2023-02-24T13:00:51.833Z,10.45
2023-02-24T13:03:32.850Z,10.10
2023-02-24T13:06:07.654Z,10.82
2023-02-24T13:08:44.897Z,16.33
2023-02-24T13:11:19.085Z,11.85
2023-02-24T13:13:52.616Z,11.85
2023-02-24T13:16:29.560Z,9.63
2023-02-24T13:19:08.164Z,10.80
2023-02-24T13:21:36.364Z,11.68
2023-02-24T13:24:04.709Z,11.45
2023-02-24T13:26:33.539Z,10.77
2023-02-24T13:29:03.125Z,10.82
2023-02-24T13:31:43.311Z,10.32
2023-02-24T13:34:30.446Z,10.68
2023-02-24T13:36:59.038Z,11.52
2023-02-24T13:39:34.290Z,10.82
2023-02-24T13:42:05.197Z,11.88
2023-02-24T13:44:33.557Z,10.93
2023-02-24T13:47:40.456Z,15.15
2023-02-24T13:50:25.258Z,12.75
2023-02-24T13:53:28.462Z,11.63
2023-02-24T13:56:09.826Z,12.95
2023-02-24T13:59:10.066Z,12.13
2023-02-24T14:01:47.897Z,11.52
2023-02-24T14:04:19.018Z,11.20
2023-02-24T14:06:51.365Z,9.90
2023-02-24T14:09:23.708Z,9.05
2023-02-24T14:11:53.740Z,8.32
2023-02-24T14:14:22.385Z,9.88
2023-02-24T14:16:51.825Z,9.60
2023-02-24T14:19:20.470Z,9.43
2023-02-24T14:21:51.973Z,10.60
2023-02-24T14:24:20.514Z,10.07
2023-02-24T14:26:51.305Z,9.52
2023-02-24T14:29:22.183Z,11.18
2023-02-24T14:31:52.420Z,11.27
2023-02-24T14:34:22.694Z,9.50
2023-02-24T14:36:53.959Z,10.95
2023-02-24T14:39:23.956Z,10.30
2023-02-24T14:41:53.214Z,10.27
2023-02-24T14:44:24.060Z,10.65
2023-02-24T14:46:53.268Z,9.98
2023-02-24T14:49:25.270Z,9.82
2023-02-24T14:51:58.376Z,10.43
2023-02-24T14:54:38.241Z,8.80
2023-02-24T14:57:06.686Z,9.20
2023-02-24T14:59:37.932Z,9.00
2023-02-24T15:02:07.861Z,8.05
2023-02-24T15:04:39.370Z,8.07
2023-02-24T15:07:18.151Z,8.98
2023-02-24T15:09:48.185Z,8.52
2023-02-24T15:12:23.015Z,8.23
2023-02-24T15:14:53.281Z,7.90
2023-02-24T15:17:22.402Z,7.85
2023-02-24T15:19:54.762Z,7.95
2023-02-24T15:24:55.740Z,7.78
2023-02-24T15:27:28.587Z,8.57
2023-02-24T15:30:06.622Z,8.95
2023-02-24T15:32:36.670Z,8.38
2023-02-24T15:35:07.744Z,8.85
2023-02-24T15:37:42.552Z,9.07
2023-02-24T15:40:20.925Z,8.45
2023-02-24T15:42:52.834Z,8.80
2023-02-24T15:45:32.497Z,9.18
2023-02-24T15:48:02.008Z,8.60
2023-02-24T15:50:31.700Z,8.13
2023-02-24T15:53:02.258Z,32.28
2023-02-24T15:55:32.544Z,11.23
2023-02-24T15:58:02.403Z,10.63
2023-02-24T16:00:32.317Z,9.57
2023-02-24T16:03:00.400Z,9.35
2023-02-24T16:05:28.681Z,8.55
2023-02-24T16:07:56.908Z,16.90
2023-02-24T16:10:28.286Z,9.10
2023-02-24T16:12:57.792Z,8.07
2023-02-24T16:15:28.371Z,8.00
2023-02-24T16:17:57.916Z,7.22
2023-02-24T16:20:31.989Z,7.55
2023-02-24T16:23:01.528Z,6.82
2023-02-24T16:25:34.075Z,7.85
2023-02-24T16:28:02.595Z,7.15
2023-02-24T16:30:31.705Z,8.57
2023-02-24T16:33:01.640Z,10.13
2023-02-24T16:35:30.205Z,11.00
2023-02-24T16:37:58.296Z,12.48
2023-02-24T16:40:30.029Z,12.27
2023-02-24T16:42:59.635Z,10.77
2023-02-24T16:45:28.829Z,12.48
2023-02-24T16:47:57.446Z,12.82
2023-02-24T16:50:30.052Z,12.80
2023-02-24T16:52:57.964Z,12.48
2023-02-24T16:55:27.018Z,12.95
2023-02-24T16:57:54.942Z,15.60
2023-02-24T17:00:24.936Z,14.07
2023-02-24T17:02:54.220Z,17.73
2023-02-24T17:05:24.211Z,16.50
2023-02-24T17:07:54.379Z,16.92
2023-02-24T17:10:24.044Z,16.42
2023-02-24T17:12:52.460Z,15.50
2023-02-24T17:15:23.056Z,16.45
2023-02-24T17:17:52.725Z,16.30
2023-02-24T17:20:22.624Z,13.60
2023-02-24T17:22:50.557Z,14.23
2023-02-24T17:25:20.990Z,14.63
2023-02-24T17:27:48.946Z,13.73
2023-02-24T17:30:18.960Z,15.40
2023-02-24T17:32:47.164Z,13.25
2023-02-24T17:35:17.019Z,17.60
2023-02-24T17:37:45.157Z,25.35
2023-02-24T17:40:14.007Z,25.08
2023-02-24T17:42:42.076Z,37.20
2023-02-24T17:45:11.790Z,20.98
2023-02-24T17:47:40.670Z,13.18
2023-02-24T17:50:16.880Z,84.22
2023-02-24T17:52:45.164Z,16.45
2023-02-24T17:55:13.539Z,15.45
2023-02-24T17:57:41.539Z,16.25
2023-02-24T18:00:12.480Z,14.45
2023-02-24T18:02:40.730Z,15.80
2023-02-24T18:05:10.074Z,16.85
2023-02-24T18:07:39.601Z,16.63
2023-02-24T18:10:09.065Z,16.88
2023-02-24T18:12:37.490Z,17.20
2023-02-24T18:15:08.951Z,19.70
2023-02-24T18:17:37.673Z,18.02
2023-02-24T18:20:07.323Z,17.50
2023-02-24T18:22:35.603Z,19.25
2023-02-24T18:25:06.157Z,18.80
2023-02-24T18:27:34.336Z,18.52
2023-02-24T18:30:02.601Z,17.60
2023-02-24T18:32:30.726Z,18.80
2023-02-24T18:34:58.952Z,18.02
2023-02-24T18:37:27.079Z,18.40
2023-02-24T18:39:55.643Z,19.15
2023-02-24T18:42:25.589Z,19.20
2023-02-24T18:44:53.796Z,18.80
2023-02-24T18:47:21.883Z,17.67
2023-02-24T18:49:50.239Z,18.77
2023-02-24T18:52:18.333Z,17.95
2023-02-24T18:54:48.550Z,17.80
2023-02-24T18:57:16.644Z,16.33
2023-02-24T18:59:46.514Z,15.80
2023-02-24T19:02:14.605Z,15.45
2023-02-24T19:04:43.079Z,17.52
2023-02-24T19:07:11.122Z,15.93
2023-02-24T19:09:41.719Z,16.30
2023-02-24T19:12:10.225Z,16.10
2023-02-24T19:14:38.616Z,15.52
2023-02-24T19:17:08.087Z,15.32
2023-02-24T19:19:36.402Z,15.02
2023-02-24T19:22:04.427Z,14.98
2023-02-24T19:24:32.736Z,13.15
2023-02-24T19:27:00.671Z,12.35
2023-02-24T19:29:29.054Z,12.95
2023-02-24T19:31:58.088Z,11.48
2023-02-24T19:34:28.052Z,14.20
2023-02-24T19:36:56.316Z,10.15
2023-02-24T19:39:24.723Z,10.55
2023-02-24T19:41:53.179Z,11.15
2023-02-24T19:44:21.548Z,10.40
2023-02-24T19:46:49.765Z,11.82
2023-02-24T19:49:17.911Z,10.80
2023-02-24T19:51:48.416Z,10.70
2023-02-24T19:54:17.062Z,9.32
2023-02-24T19:56:45.142Z,9.93
2023-02-24T19:59:13.525Z,10.27
2023-02-24T20:01:41.619Z,11.15
2023-02-24T20:04:10.905Z,10.68
2023-02-24T20:06:41.092Z,10.48
2023-02-24T20:09:15.346Z,8.90
2023-02-24T20:11:44.661Z,8.85
2023-02-24T20:14:14.198Z,9.15
2023-02-24T20:16:43.346Z,8.38
2023-02-24T20:19:13.516Z,7.47
2023-02-24T20:21:43.235Z,8.88
2023-02-24T20:24:15.063Z,7.78
2023-02-24T20:26:46.849Z,9.38
2023-02-24T20:29:15.482Z,11.13
2023-02-24T20:31:43.864Z,7.57
2023-02-24T20:34:14.323Z,7.40
2023-02-24T20:36:43.724Z,10.23
2023-02-24T20:39:13.496Z,10.32
2023-02-24T20:41:42.174Z,7.88
2023-02-24T20:44:11.437Z,8.73
2023-02-24T20:46:39.662Z,8.90
2023-02-24T20:49:10.006Z,8.68
2023-02-24T20:51:38.482Z,8.35
2023-02-24T20:54:07.575Z,8.40
2023-02-24T20:56:38.630Z,9.85
2023-02-24T20:59:09.072Z,7.37
2023-02-24T21:01:37.715Z,8.77
2023-02-24T21:04:07.886Z,10.25
2023-02-24T21:06:36.728Z,8.07
2023-02-24T21:09:05.194Z,8.55
2023-02-24T21:11:33.384Z,8.50
2023-02-24T21:14:03.186Z,10.25
2023-02-24T21:16:31.177Z,8.48
2023-02-24T21:18:59.392Z,8.23
2023-02-24T21:21:27.870Z,8.35
2023-02-24T21:23:56.606Z,8.68
2023-02-24T21:26:26.784Z,10.10
2023-02-24T21:28:57.647Z,9.73
2023-02-24T21:31:28.353Z,7.75
2023-02-24T21:33:57.280Z,7.90
2023-02-24T21:36:27.656Z,7.15
2023-02-24T21:38:56.456Z,6.60
2023-02-24T21:41:24.869Z,4.28
2023-02-24T21:43:55.450Z,3.63
2023-02-24T21:46:28.354Z,3.45
2023-02-24T21:48:59.253Z,3.28
2023-02-24T21:51:28.369Z,3.60
2023-02-24T21:53:57.182Z,4.28
2023-02-24T21:56:27.180Z,3.85
2023-02-24T21:58:58.426Z,4.38
2023-02-24T22:01:28.385Z,3.33
2023-02-24T22:03:59.470Z,4.40
2023-02-24T22:06:31.260Z,4.38
2023-02-24T22:09:00.553Z,5.10
2023-02-24T22:11:28.699Z,5.22
2023-02-24T22:13:56.875Z,5.03
2023-02-24T22:16:26.445Z,3.90
2023-02-24T22:18:55.714Z,2.85
2023-02-24T22:21:27.277Z,2.50
2023-02-24T22:23:57.692Z,3.80
2023-02-24T22:26:26.675Z,5.32
2023-02-24T22:28:55.833Z,5.97
2023-02-24T22:31:25.496Z,6.80
2023-02-24T22:33:53.843Z,7.30
2023-02-24T22:36:24.640Z,8.35
2023-02-24T22:38:56.048Z,7.35
2023-02-24T22:41:26.557Z,7.72
2023-02-24T22:43:55.186Z,7.28
2023-02-24T22:46:25.663Z,6.75
2023-02-24T22:48:54.303Z,6.78
2023-02-24T22:51:22.284Z,8.02
2023-02-24T22:53:51.498Z,8.35
2023-02-24T22:56:22.705Z,7.75
2023-02-24T22:58:51.244Z,6.68
2023-02-24T23:01:22.582Z,6.50
2023-02-24T23:03:50.843Z,7.82
2023-02-24T23:06:20.652Z,7.90
2023-02-24T23:08:50.412Z,9.00
2023-02-24T23:11:22.010Z,9.60
2023-02-24T23:13:51.644Z,9.43
2023-02-24T23:16:22.346Z,9.80
2023-02-24T23:18:53.803Z,10.38
2023-02-24T23:21:23.889Z,11.35
2023-02-24T23:23:56.793Z,12.15
2023-02-24T23:26:29.603Z,11.05
2023-02-24T23:28:58.032Z,12.00
2023-02-24T23:31:26.030Z,11.80
2023-02-24T23:33:55.087Z,11.18
2023-02-24T23:36:24.332Z,11.15
2023-02-24T23:38:52.688Z,11.50
2023-02-24T23:41:20.787Z,11.18
2023-02-24T23:43:50.453Z,10.65
2023-02-24T23:46:18.437Z,9.75
2023-02-24T23:48:46.675Z,8.13
2023-02-24T23:51:16.211Z,8.73
2023-02-24T23:53:45.880Z,10.05
2023-02-24T23:56:17.304Z,10.30
2023-02-24T23:58:45.952Z,8.80
